Time;durP1;ratioP1;P1;durP2;ratioP2;P2;SDS_P1;SDS_P2;PMS_P1;PMS_P2;Temp;Humidity;BMP_temperature;BMP_pressure;BME280_temperature;BME280_humidity;BME280_pressure;Samples;Min_cycle;Max_cycle;Signal;HPM_P1;HPM_P2
2021/10/20 00:01:36;;;;;;;;;;;18.90;99.90;;;;;;5092394;28;19912;-73
2021/10/20 00:04:03;;;;;;;;;;;19.10;99.90;;;;;;5092234;28;20304;-72
2021/10/20 00:06:30;;;;;;;;;;;19.40;99.90;;;;;;5088520;28;19909;-72
2021/10/20 00:08:57;;;;;;;;;;;19.50;99.90;;;;;;5092875;28;19908;-71
2021/10/20 00:11:24;;;;;;;;;;;19.50;99.90;;;;;;5093119;28;19934;-73
2021/10/20 00:13:51;;;;;;;;;;;19.50;99.90;;;;;;5092773;28;19939;-73
2021/10/20 00:16:18;;;;;;;;;;;19.50;99.90;;;;;;5091684;28;20450;-72
2021/10/20 00:18:48;;;;;;;;;;;19.40;99.90;;;;;;5092112;28;20374;-73
2021/10/20 00:21:16;;;;;;;;;;;19.40;99.90;;;;;;5091655;28;19935;-70
2021/10/20 00:23:43;;;;;;;;;;;19.50;99.90;;;;;;5091850;28;20007;-70
2021/10/20 00:26:10;;;;;;;;;;;19.60;99.90;;;;;;5091512;28;19912;-70
2021/10/20 00:28:36;;;;;;;;;;;19.80;99.90;;;;;;5089941;28;19908;-72
2021/10/20 00:31:03;;;;;;;;;;;19.90;99.90;;;;;;5092209;28;19946;-71
2021/10/20 00:33:30;;;;;;;;;;;19.80;99.90;;;;;;5092633;28;20413;-72
2021/10/20 00:35:57;;;;;;;;;;;19.90;99.90;;;;;;5093370;28;19916;-72
2021/10/20 00:38:23;;;;;;;;;;;20.00;99.90;;;;;;5093157;28;19970;-72
2021/10/20 00:40:50;;;;;;;;;;;20.30;99.90;;;;;;5091379;28;19912;-73
2021/10/20 00:43:21;;;;;;;;;;;20.30;99.90;;;;;;5092437;28;19935;-73
2021/10/20 00:45:48;;;;;;;;;;;20.30;99.90;;;;;;5092416;28;19958;-71
2021/10/20 00:48:15;;;;;;;;;;;20.30;99.90;;;;;;5095618;28;19916;-73
2021/10/20 00:50:42;;;;;;;;;;;20.40;99.90;;;;;;5095484;28;20321;-72
2021/10/20 00:53:09;;;;;;;;;;;20.60;99.90;;;;;;5095448;28;19908;-72
2021/10/20 00:55:36;;;;;;;;;;;20.70;99.90;;;;;;5095231;28;19922;-72
2021/10/20 00:58:03;;;;;;;;;;;20.70;99.90;;;;;;5095873;28;20425;-72
2021/10/20 01:00:30;;;;;;;;;;;20.80;99.90;;;;;;5096517;28;19908;-71
2021/10/20 01:02:57;;;;;;;;;;;20.80;99.90;;;;;;5097216;28;19912;-73
2021/10/20 01:05:25;;;;;;;;;;;20.90;99.90;;;;;;5095668;28;20381;-73
2021/10/20 01:07:52;;;;;;;;;;;21.00;99.90;;;;;;5095296;28;20010;-73
2021/10/20 01:10:19;;;;;;;;;;;20.90;99.90;;;;;;5095360;28;19914;-74
2021/10/20 01:12:46;;;;;;;;;;;20.80;99.90;;;;;;5094406;28;19908;-74
2021/10/20 01:15:17;;;;;;;;;;;21.20;99.90;;;;;;5095392;28;19908;-74
2021/10/20 01:17:46;;;;;;;;;;;21.30;99.90;;;;;;5096471;28;19934;-74
2021/10/20 01:20:13;;;;;;;;;;;21.20;99.90;;;;;;5096351;28;19915;-73
2021/10/20 01:22:40;;;;;;;;;;;21.20;99.90;;;;;;5095515;28;19973;-72
2021/10/20 01:25:07;;;;;;;;;;;21.30;99.90;;;;;;5095705;28;19908;-71
2021/10/20 01:27:34;;;;;;;;;;;21.40;99.90;;;;;;5095082;28;19916;-73
2021/10/20 01:30:01;;;;;;;;;;;21.20;99.90;;;;;;5094720;28;19908;-71
2021/10/20 01:32:28;;;;;;;;;;;21.10;99.90;;;;;;5095268;28;19919;-73
2021/10/20 01:34:55;;;;;;;;;;;21.00;99.90;;;;;;5095234;28;19912;-73
2021/10/20 01:37:23;;;;;;;;;;;20.90;99.90;;;;;;5095416;28;19909;-71
2021/10/20 01:39:50;;;;;;;;;;;20.70;99.90;;;;;;5094927;28;19908;-71
2021/10/20 01:42:18;;;;;;;;;;;20.60;99.90;;;;;;5093957;28;19999;-70
2021/10/20 01:44:44;;;;;;;;;;;20.50;99.90;;;;;;5095750;28;20382;-70
2021/10/20 01:47:11;;;;;;;;;;;20.30;99.90;;;;;;5095107;28;20351;-71
2021/10/20 01:49:39;;;;;;;;;;;20.30;99.90;;;;;;5094443;28;19908;-72
2021/10/20 01:52:05;;;;;;;;;;;20.40;99.90;;;;;;5094454;28;19912;-72
2021/10/20 01:54:32;;;;;;;;;;;20.50;99.90;;;;;;5094257;28;19908;-71
2021/10/20 01:56:59;;;;;;;;;;;20.70;99.90;;;;;;5093949;28;19934;-72
2021/10/20 01:59:25;;;;;;;;;;;20.60;99.90;;;;;;5094254;28;19988;-71
2021/10/20 02:01:52;;;;;;;;;;;20.60;99.40;;;;;;5094218;28;19923;-72
2021/10/20 02:04:19;;;;;;;;;;;20.30;99.90;;;;;;5094011;28;19935;-70
2021/10/20 02:06:45;;;;;;;;;;;20.40;99.90;;;;;;5092999;28;19914;-72
2021/10/20 02:09:12;;;;;;;;;;;20.30;99.90;;;;;;5094150;28;19919;-71
2021/10/20 02:11:41;;;;;;;;;;;20.20;99.90;;;;;;5094270;28;19915;-70
2021/10/20 02:14:08;;;;;;;;;;;20.20;99.90;;;;;;5093931;28;19915;-72
2021/10/20 02:16:35;;;;;;;;;;;20.20;99.90;;;;;;5093581;28;20427;-71
2021/10/20 02:19:03;;;;;;;;;;;20.20;99.60;;;;;;5093971;28;19953;-69
2021/10/20 02:21:30;;;;;;;;;;;20.30;98.10;;;;;;5093827;28;19962;-70
2021/10/20 02:23:57;;;;;;;;;;;20.20;97.40;;;;;;5094208;28;19958;-70
2021/10/20 02:26:24;;;;;;;;;;;20.20;98.80;;;;;;5093540;28;19970;-70
2021/10/20 02:28:50;;;;;;;;;;;20.20;99.40;;;;;;5093674;28;19966;-70
2021/10/20 02:31:17;;;;;;;;;;;20.30;98.00;;;;;;5093858;28;19908;-70
2021/10/20 02:33:43;;;;;;;;;;;20.50;98.10;;;;;;5092173;28;19908;-71
2021/10/20 02:36:10;;;;;;;;;;;20.40;97.90;;;;;;5093384;28;20255;-70
2021/10/20 02:38:37;;;;;;;;;;;20.40;97.60;;;;;;5093480;28;19969;-73
2021/10/20 02:41:03;;;;;;;;;;;20.50;97.90;;;;;;5093602;28;20378;-73
2021/10/20 02:43:35;;;;;;;;;;;20.50;98.10;;;;;;5093816;28;19908;-72
2021/10/20 02:46:01;;;;;;;;;;;20.50;98.30;;;;;;5092906;28;20261;-70
2021/10/20 02:48:28;;;;;;;;;;;20.60;98.20;;;;;;5093290;28;19912;-71
2021/10/20 02:50:55;;;;;;;;;;;20.70;98.20;;;;;;5093731;28;20278;-72
2021/10/20 02:53:22;;;;;;;;;;;20.70;98.80;;;;;;5093635;28;20270;-72
2021/10/20 02:55:48;;;;;;;;;;;20.70;98.90;;;;;;5092824;28;19920;-72
2021/10/20 02:58:15;;;;;;;;;;;20.60;99.30;;;;;;5093347;28;19931;-71
2021/10/20 03:00:41;;;;;;;;;;;20.60;98.70;;;;;;5092901;28;19923;-71
2021/10/20 03:03:08;;;;;;;;;;;20.60;98.40;;;;;;5093076;28;20396;-71
2021/10/20 03:05:38;;;;;;;;;;;20.50;99.20;;;;;;5090943;28;20212;-72
2021/10/20 03:08:05;;;;;;;;;;;20.50;99.40;;;;;;5092301;28;19962;-72
2021/10/20 03:10:32;;;;;;;;;;;20.60;99.30;;;;;;5092986;28;19915;-70
2021/10/20 03:12:58;;;;;;;;;;;20.50;99.70;;;;;;5093057;28;19914;-72
2021/10/20 03:15:25;;;;;;;;;;;20.60;99.50;;;;;;5092990;28;19953;-71
2021/10/20 03:17:51;;;;;;;;;;;20.50;99.70;;;;;;5092698;28;19969;-70
2021/10/20 03:20:18;;;;;;;;;;;20.70;99.80;;;;;;5092424;28;19909;-71
2021/10/20 03:22:45;;;;;;;;;;;20.80;99.90;;;;;;5092908;28;19920;-70
2021/10/20 03:25:12;;;;;;;;;;;20.60;99.90;;;;;;5092777;28;20301;-70
2021/10/20 03:27:43;;;;;;;;;;;20.60;99.70;;;;;;5090970;28;19934;-70
2021/10/20 03:30:10;;;;;;;;;;;20.70;99.80;;;;;;5092432;28;20375;-72
2021/10/20 03:32:37;;;;;;;;;;;20.50;99.80;;;;;;5092553;28;19919;-72
2021/10/20 03:35:04;;;;;;;;;;;20.60;99.90;;;;;;5092379;28;19938;-69
2021/10/20 03:37:30;;;;;;;;;;;20.40;99.90;;;;;;5092745;28;19908;-70
2021/10/20 03:39:57;;;;;;;;;;;20.30;99.90;;;;;;5092885;28;20378;-70
2021/10/20 03:42:25;;;;;;;;;;;20.30;99.90;;;;;;5092385;28;20110;-71
2021/10/20 03:44:52;;;;;;;;;;;20.40;99.90;;;;;;5092229;28;20389;-72
2021/10/20 03:47:22;;;;;;;;;;;20.50;99.90;;;;;;5091944;28;19908;-70
2021/10/20 03:49:49;;;;;;;;;;;20.40;99.90;;;;;;5092464;28;19909;-71
2021/10/20 03:52:16;;;;;;;;;;;20.30;99.90;;;;;;5092161;28;19908;-71
2021/10/20 03:54:43;;;;;;;;;;;20.30;99.90;;;;;;5092468;28;19944;-69
2021/10/20 03:57:10;;;;;;;;;;;20.30;99.90;;;;;;5092152;28;20428;-70
2021/10/20 03:59:37;;;;;;;;;;;20.30;99.90;;;;;;5092068;28;20014;-70
2021/10/20 04:02:03;;;;;;;;;;;20.20;99.90;;;;;;5092753;28;19917;-70
2021/10/20 04:04:30;;;;;;;;;;;20.30;99.90;;;;;;5092476;28;19908;-70
2021/10/20 04:06:57;;;;;;;;;;;20.30;99.90;;;;;;5092231;28;19908;-71
2021/10/20 04:09:23;;;;;;;;;;;20.30;99.90;;;;;;5092382;28;19952;-70
2021/10/20 04:11:50;;;;;;;;;;;20.30;99.90;;;;;;5091813;28;19962;-69
2021/10/20 04:14:17;;;;;;;;;;;20.60;99.90;;;;;;5092294;28;20436;-69
2021/10/20 04:16:43;;;;;;;;;;;20.50;99.90;;;;;;5092031;28;19908;-72
2021/10/20 04:19:10;;;;;;;;;;;20.60;99.90;;;;;;5092819;28;19908;-72
2021/10/20 04:21:37;;;;;;;;;;;20.60;99.90;;;;;;5096315;28;19952;-71
2021/10/20 04:24:04;;;;;;;;;;;20.60;99.90;;;;;;5096394;28;19908;-72
2021/10/20 04:26:30;;;;;;;;;;;20.60;99.90;;;;;;5095775;28;19920;-70
2021/10/20 04:28:57;;;;;;;;;;;20.60;99.90;;;;;;5096110;28;19915;-72
2021/10/20 04:31:24;;;;;;;;;;;20.60;99.60;;;;;;5096173;28;20124;-70
2021/10/20 04:33:50;;;;;;;;;;;20.40;99.90;;;;;;5094636;28;20282;-71
2021/10/20 04:36:17;;;;;;;;;;;20.30;99.90;;;;;;5095701;28;19998;-71
2021/10/20 04:38:44;;;;;;;;;;;20.30;99.90;;;;;;5095820;28;20306;-72
2021/10/20 04:41:10;;;;;;;;;;;20.40;99.90;;;;;;5095813;28;19911;-72
2021/10/20 04:43:37;;;;;;;;;;;20.30;99.90;;;;;;5095874;28;20435;-72
2021/10/20 04:46:04;;;;;;;;;;;20.30;99.90;;;;;;5095227;28;19916;-71
2021/10/20 04:48:30;;;;;;;;;;;20.30;99.90;;;;;;5095433;28;19940;-72
2021/10/20 04:50:57;;;;;;;;;;;20.40;99.90;;;;;;5095908;28;19916;-72
2021/10/20 04:53:23;;;;;;;;;;;20.40;99.90;;;;;;5094371;28;19957;-71
2021/10/20 04:55:50;;;;;;;;;;;20.60;99.90;;;;;;5094904;28;19928;-72
2021/10/20 04:58:17;;;;;;;;;;;20.50;99.90;;;;;;5095470;28;19909;-72
2021/10/20 05:00:43;;;;;;;;;;;20.40;99.90;;;;;;5095381;28;19908;-70
2021/10/20 05:03:10;;;;;;;;;;;20.30;99.90;;;;;;5095665;28;20328;-71
2021/10/20 05:05:37;;;;;;;;;;;20.30;99.90;;;;;;5095054;28;19912;-71
2021/10/20 05:08:04;;;;;;;;;;;20.20;99.90;;;;;;5095287;28;19915;-71
2021/10/20 05:10:30;;;;;;;;;;;20.10;99.90;;;;;;5095021;28;19912;-70
2021/10/20 05:12:57;;;;;;;;;;;20.00;99.90;;;;;;5095180;28;19908;-71
2021/10/20 05:15:24;;;;;;;;;;;19.90;99.90;;;;;;5094875;28;19912;-71
2021/10/20 05:17:52;;;;;;;;;;;19.80;99.90;;;;;;5095216;28;20359;-72
2021/10/20 05:20:19;;;;;;;;;;;19.80;99.90;;;;;;5095143;28;19908;-71
2021/10/20 05:22:46;;;;;;;;;;;19.70;99.90;;;;;;5095155;28;19917;-70
2021/10/20 05:25:14;;;;;;;;;;;19.70;99.90;;;;;;5095014;28;19924;-71
2021/10/20 05:27:41;;;;;;;;;;;19.90;99.90;;;;;;5094951;28;20317;-71
2021/10/20 05:30:08;;;;;;;;;;;20.00;99.90;;;;;;5094910;28;20385;-72
2021/10/20 05:32:35;;;;;;;;;;;20.20;99.90;;;;;;5093830;28;20255;-71
2021/10/20 05:35:02;;;;;;;;;;;20.30;99.90;;;;;;5094868;28;19995;-71
2021/10/20 05:37:33;;;;;;;;;;;20.20;99.90;;;;;;5094690;28;19994;-72
2021/10/20 05:39:59;;;;;;;;;;;20.10;99.90;;;;;;5094623;28;19908;-71
2021/10/20 05:42:26;;;;;;;;;;;20.20;99.90;;;;;;5094384;28;20442;-70
2021/10/20 05:44:53;;;;;;;;;;;20.20;99.90;;;;;;5094673;28;19914;-71
2021/10/20 05:47:19;;;;;;;;;;;20.30;99.90;;;;;;5094589;28;20311;-70
2021/10/20 05:49:47;;;;;;;;;;;20.30;99.90;;;;;;5094268;28;19908;-70
2021/10/20 05:52:13;;;;;;;;;;;20.20;99.90;;;;;;5092025;28;20358;-71
2021/10/20 05:54:40;;;;;;;;;;;20.10;99.90;;;;;;5092465;28;19912;-71
2021/10/20 05:57:07;;;;;;;;;;;20.10;99.90;;;;;;5092084;28;20527;-71
2021/10/20 05:59:33;;;;;;;;;;;20.10;99.90;;;;;;5090672;28;19962;-71
2021/10/20 06:02:00;;;;;;;;;;;19.90;99.90;;;;;;5092319;28;19916;-71
2021/10/20 06:04:26;;;;;;;;;;;19.90;99.90;;;;;;5091684;28;19919;-72
2021/10/20 06:06:53;;;;;;;;;;;20.00;99.90;;;;;;5092152;28;19908;-71
2021/10/20 06:09:20;;;;;;;;;;;20.00;99.90;;;;;;5091163;28;20377;-71
2021/10/20 06:11:47;;;;;;;;;;;19.90;99.90;;;;;;5091642;28;19912;-72
2021/10/20 06:14:13;;;;;;;;;;;19.90;99.90;;;;;;5091835;28;19956;-71
2021/10/20 06:16:41;;;;;;;;;;;19.80;99.90;;;;;;5091586;28;19910;-71
2021/10/20 06:19:08;;;;;;;;;;;19.60;99.90;;;;;;5091504;28;20367;-70
2021/10/20 06:21:35;;;;;;;;;;;19.60;99.90;;;;;;5090911;28;19926;-70
2021/10/20 06:24:02;;;;;;;;;;;19.70;99.90;;;;;;5092799;28;19965;-71
2021/10/20 06:26:29;;;;;;;;;;;19.60;99.90;;;;;;5092599;28;19912;-70
2021/10/20 06:28:56;;;;;;;;;;;19.60;99.90;;;;;;5093513;28;20317;-70
2021/10/20 06:31:22;;;;;;;;;;;19.60;99.90;;;;;;5093404;28;19908;-70
2021/10/20 06:33:49;;;;;;;;;;;19.60;99.90;;;;;;5093849;28;19912;-71
2021/10/20 06:36:22;;;;;;;;;;;19.50;99.90;;;;;;5092075;28;19908;-71
2021/10/20 06:38:51;;;;;;;;;;;19.40;99.90;;;;;;5092543;28;19915;-71
2021/10/20 06:41:18;;;;;;;;;;;19.30;99.90;;;;;;5092150;28;19916;-70
2021/10/20 06:43:44;;;;;;;;;;;19.20;99.90;;;;;;5091718;28;20348;-70
2021/10/20 06:46:11;;;;;;;;;;;19.10;99.90;;;;;;5091064;28;19912;-70
2021/10/20 06:48:38;;;;;;;;;;;19.10;99.90;;;;;;5092675;28;20349;-70
2021/10/20 06:51:06;;;;;;;;;;;19.10;99.90;;;;;;5090355;28;20466;-71
2021/10/20 06:53:32;;;;;;;;;;;19.10;99.90;;;;;;5093250;28;19912;-72
2021/10/20 06:56:00;;;;;;;;;;;19.10;99.90;;;;;;5091302;28;19931;-70
2021/10/20 06:58:28;;;;;;;;;;;19.00;99.90;;;;;;5091132;28;19912;-70
2021/10/20 07:00:55;;;;;;;;;;;19.10;99.90;;;;;;5091721;28;19920;-70
2021/10/20 07:03:22;;;;;;;;;;;19.00;99.90;;;;;;5091301;28;19935;-71
2021/10/20 07:05:48;;;;;;;;;;;18.90;99.90;;;;;;5090900;28;19912;-71
2021/10/20 07:08:15;;;;;;;;;;;18.90;99.90;;;;;;5090674;28;19957;-71
2021/10/20 07:10:42;;;;;;;;;;;18.90;99.90;;;;;;5090153;28;20606;-72
2021/10/20 07:13:09;;;;;;;;;;;18.80;99.90;;;;;;5089477;28;19983;-71
2021/10/20 07:15:35;;;;;;;;;;;18.80;99.90;;;;;;5090716;28;19912;-71
2021/10/20 07:18:02;;;;;;;;;;;18.70;99.90;;;;;;5090932;28;20445;-71
2021/10/20 07:20:29;;;;;;;;;;;18.70;99.90;;;;;;5090641;28;19912;-70
2021/10/20 07:22:56;;;;;;;;;;;18.70;99.90;;;;;;5092417;28;19916;-73
2021/10/20 07:25:22;;;;;;;;;;;18.70;99.90;;;;;;5080096;28;19908;-69
2021/10/20 07:27:50;;;;;;;;;;;18.70;99.90;;;;;;5071632;28;19908;-71
2021/10/20 07:30:17;;;;;;;;;;;18.70;99.90;;;;;;5104426;28;19912;-72
2021/10/20 07:32:43;;;;;;;;;;;18.60;99.90;;;;;;5072122;28;20258;-71
2021/10/20 07:35:11;;;;;;;;;;;18.60;99.90;;;;;;5071763;28;20375;-70
2021/10/20 07:37:38;;;;;;;;;;;18.60;99.90;;;;;;5071178;28;19919;-71
2021/10/20 07:40:06;;;;;;;;;;;18.60;99.90;;;;;;5071568;28;19912;-71
2021/10/20 07:42:37;;;;;;;;;;;18.50;99.90;;;;;;5071010;28;19971;-71
2021/10/20 07:45:05;;;;;;;;;;;18.50;99.90;;;;;;5071251;28;20011;-73
2021/10/20 07:47:32;;;;;;;;;;;18.40;99.90;;;;;;5070732;28;19908;-72
2021/10/20 07:49:58;;;;;;;;;;;18.40;99.90;;;;;;5070970;28;20363;-72
2021/10/20 07:52:28;;;;;;;;;;;18.40;99.90;;;;;;5069932;28;20366;-72
2021/10/20 07:54:55;;;;;;;;;;;18.40;99.90;;;;;;5069769;28;19924;-72
2021/10/20 07:57:22;;;;;;;;;;;18.40;99.90;;;;;;5070216;28;20272;-72
2021/10/20 07:59:48;;;;;;;;;;;18.30;99.90;;;;;;5069938;28;19919;-71
2021/10/20 08:02:15;;;;;;;;;;;18.30;99.90;;;;;;5069673;28;20011;-72
2021/10/20 08:04:42;;;;;;;;;;;18.30;99.90;;;;;;5069657;28;19998;-71
2021/10/20 08:07:08;;;;;;;;;;;18.30;99.90;;;;;;5071820;28;20460;-72
2021/10/20 08:09:35;;;;;;;;;;;18.30;99.90;;;;;;5071428;28;19935;-72
2021/10/20 08:12:02;;;;;;;;;;;18.20;99.90;;;;;;5072054;28;19940;-70
2021/10/20 08:14:30;;;;;;;;;;;18.20;99.90;;;;;;5071834;28;19913;-71
2021/10/20 08:16:56;;;;;;;;;;;18.20;99.90;;;;;;5071519;28;19909;-72
2021/10/20 08:19:23;;;;;;;;;;;18.10;99.90;;;;;;5071922;28;19940;-72
2021/10/20 08:21:50;;;;;;;;;;;18.10;99.90;;;;;;5071538;28;19913;-71
2021/10/20 08:24:16;;;;;;;;;;;18.20;99.90;;;;;;5071709;28;19908;-71
2021/10/20 08:26:43;;;;;;;;;;;18.20;99.90;;;;;;5071714;28;19912;-72
2021/10/20 08:29:11;;;;;;;;;;;18.10;99.90;;;;;;5071736;28;19908;-72
2021/10/20 08:31:38;;;;;;;;;;;18.10;99.90;;;;;;5071154;28;20435;-72
2021/10/20 08:34:04;;;;;;;;;;;18.10;99.90;;;;;;5072167;28;20306;-72
2021/10/20 08:36:31;;;;;;;;;;;18.10;99.90;;;;;;5070988;28;19954;-71
2021/10/20 08:38:58;;;;;;;;;;;18.10;99.90;;;;;;5071664;28;19915;-71
2021/10/20 08:41:25;;;;;;;;;;;18.10;99.90;;;;;;5071513;28;19921;-70
2021/10/20 08:43:52;;;;;;;;;;;18.00;99.90;;;;;;5071637;28;20363;-71
2021/10/20 08:46:23;;;;;;;;;;;17.90;99.90;;;;;;5071023;28;19915;-71
2021/10/20 08:48:49;;;;;;;;;;;18.00;99.90;;;;;;5071231;28;19927;-73
2021/10/20 08:51:18;;;;;;;;;;;18.00;99.90;;;;;;5071943;28;20283;-73
2021/10/20 08:53:44;;;;;;;;;;;17.90;99.90;;;;;;5071607;28;19935;-70
2021/10/20 08:56:14;;;;;;;;;;;17.90;99.90;;;;;;5071403;28;19981;-70
2021/10/20 08:58:41;;;;;;;;;;;17.90;99.90;;;;;;5071631;28;19917;-71
2021/10/20 09:01:07;;;;;;;;;;;17.90;99.90;;;;;;5075022;28;19913;-71
2021/10/20 09:03:34;;;;;;;;;;;17.90;99.90;;;;;;5071249;28;20283;-71
2021/10/20 09:06:01;;;;;;;;;;;17.80;99.90;;;;;;5072057;28;20375;-71
2021/10/20 09:08:38;;;;;;;;;;;17.80;99.90;;;;;;5075041;28;20299;-71
2021/10/20 09:11:16;;;;;;;;;;;17.80;99.90;;;;;;5075182;28;19919;-72
2021/10/20 09:13:43;;;;;;;;;;;17.70;99.90;;;;;;5074907;28;20390;-71
2021/10/20 09:16:09;;;;;;;;;;;17.70;99.90;;;;;;5074226;28;19908;-71
2021/10/20 09:18:38;;;;;;;;;;;17.70;99.90;;;;;;5074112;28;19935;-72
2021/10/20 09:21:05;;;;;;;;;;;17.70;99.90;;;;;;5074899;28;20007;-71
2021/10/20 09:23:32;;;;;;;;;;;17.70;99.90;;;;;;5074599;28;19920;-71
2021/10/20 09:25:59;;;;;;;;;;;17.70;99.90;;;;;;5107151;28;20015;-71
2021/10/20 09:28:33;;;;;;;;;;;17.70;99.90;;;;;;5074628;28;19908;-70
2021/10/20 09:31:02;;;;;;;;;;;17.70;99.90;;;;;;5075073;28;19912;-72
2021/10/20 09:33:30;;;;;;;;;;;17.70;99.90;;;;;;5074250;28;20371;-72
2021/10/20 09:36:03;;;;;;;;;;;17.70;99.90;;;;;;5074919;28;19931;-71
2021/10/20 09:38:37;;;;;;;;;;;17.70;99.90;;;;;;5073478;28;19908;-71
2021/10/20 09:41:04;;;;;;;;;;;17.60;99.90;;;;;;5074706;28;19967;-71
2021/10/20 09:43:31;;;;;;;;;;;17.60;99.90;;;;;;5074480;28;19919;-71
2021/10/20 09:45:58;;;;;;;;;;;17.60;99.90;;;;;;5074816;28;19908;-72
2021/10/20 09:48:26;;;;;;;;;;;17.60;99.90;;;;;;5074317;28;19912;-71
2021/10/20 09:51:02;;;;;;;;;;;17.60;99.90;;;;;;5074037;28;19985;-72
2021/10/20 09:53:30;;;;;;;;;;;17.50;99.90;;;;;;5075252;28;20011;-72
2021/10/20 09:56:01;;;;;;;;;;;17.50;99.90;;;;;;5071829;28;19920;-72
2021/10/20 09:58:30;;;;;;;;;;;17.50;99.90;;;;;;5074174;28;19912;-72
2021/10/20 10:01:07;;;;;;;;;;;17.50;99.90;;;;;;5074179;28;20337;-75
2021/10/20 10:03:34;;;;;;;;;;;17.50;99.90;;;;;;5074015;28;20394;-72
2021/10/20 10:06:01;;;;;;;;;;;17.50;99.90;;;;;;5075100;28;19909;-72
2021/10/20 10:08:28;;;;;;;;;;;17.50;99.90;;;;;;5074430;28;19908;-72
2021/10/20 10:10:56;;;;;;;;;;;17.50;99.90;;;;;;5074579;28;20443;-73
2021/10/20 10:13:25;;;;;;;;;;;17.50;99.90;;;;;;5074267;28;20007;-73
2021/10/20 10:15:53;;;;;;;;;;;17.50;99.90;;;;;;5072810;28;20272;-72
2021/10/20 10:18:20;;;;;;;;;;;17.50;99.90;;;;;;5073635;28;19909;-71
2021/10/20 10:20:47;;;;;;;;;;;17.50;99.90;;;;;;5074219;28;19915;-70
2021/10/20 10:23:24;;;;;;;;;;;17.50;99.90;;;;;;5106840;28;19923;-72
2021/10/20 10:26:05;;;;;;;;;;;17.50;99.90;;;;;;5073994;28;19912;-71
2021/10/20 10:28:36;;;;;;;;;;;17.40;99.90;;;;;;5074025;28;19969;-70
2021/10/20 10:31:07;;;;;;;;;;;17.40;99.90;;;;;;5074374;28;19932;-70
2021/10/20 10:33:38;;;;;;;;;;;17.40;99.90;;;;;;5073219;28;19909;-71
2021/10/20 10:36:16;;;;;;;;;;;17.40;99.90;;;;;;5075091;28;19919;-72
2021/10/20 10:38:44;;;;;;;;;;;17.40;99.90;;;;;;5073969;28;19934;-71
2021/10/20 10:41:23;;;;;;;;;;;17.40;99.90;;;;;;5073639;28;19919;-71
2021/10/20 10:44:11;;;;;;;;;;;17.40;99.90;;;;;;5073446;28;19938;-71
2021/10/20 10:46:38;;;;;;;;;;;17.30;99.90;;;;;;5073008;28;19912;-71
2021/10/20 10:49:21;;;;;;;;;;;17.30;99.90;;;;;;5073727;28;19917;-71
2021/10/20 10:52:05;;;;;;;;;;;17.30;99.90;;;;;;5073434;28;19908;-71
2021/10/20 10:54:36;;;;;;;;;;;17.30;99.90;;;;;;5073526;28;19916;-72
2021/10/20 10:57:13;;;;;;;;;;;17.30;99.90;;;;;;5073270;28;19921;-72
2021/10/20 10:59:52;;;;;;;;;;;17.30;99.90;;;;;;5073270;28;19995;-73
2021/10/20 11:02:36;;;;;;;;;;;17.30;99.90;;;;;;5072762;28;20408;-72
2021/10/20 11:05:04;;;;;;;;;;;17.30;99.90;;;;;;5073210;28;19909;-72
2021/10/20 11:07:30;;;;;;;;;;;17.30;99.90;;;;;;5105941;28;19909;-71
2021/10/20 11:09:57;;;;;;;;;;;17.20;99.90;;;;;;5072988;28;19909;-72
2021/10/20 11:12:27;;;;;;;;;;;17.20;99.90;;;;;;5073303;28;19909;-73
2021/10/20 11:14:55;;;;;;;;;;;17.20;99.90;;;;;;5073132;28;20439;-72
2021/10/20 11:17:22;;;;;;;;;;;17.20;99.90;;;;;;5105016;28;19962;-71
2021/10/20 11:19:49;;;;;;;;;;;17.20;99.90;;;;;;5071412;28;19909;-73
2021/10/20 11:22:20;;;;;;;;;;;17.20;99.90;;;;;;5072860;28;19966;-73
2021/10/20 11:24:48;;;;;;;;;;;17.20;99.90;;;;;;5072825;28;20364;-73
2021/10/20 11:27:16;;;;;;;;;;;17.20;99.90;;;;;;5073067;28;20072;-73
2021/10/20 11:29:48;;;;;;;;;;;17.10;99.90;;;;;;5072134;28;19915;-73
2021/10/20 11:32:16;;;;;;;;;;;17.20;99.90;;;;;;5071241;28;19908;-72
2021/10/20 11:34:44;;;;;;;;;;;17.10;99.90;;;;;;5072966;28;20383;-73
2021/10/20 11:37:11;;;;;;;;;;;17.10;99.90;;;;;;5072657;28;20271;-72
2021/10/20 11:39:38;;;;;;;;;;;17.10;99.90;;;;;;5072204;28;19919;-72
2021/10/20 11:42:09;;;;;;;;;;;17.10;99.90;;;;;;5072445;28;19924;-71
2021/10/20 11:44:37;;;;;;;;;;;17.00;99.90;;;;;;5072553;28;19909;-73
2021/10/20 11:47:05;;;;;;;;;;;17.00;99.90;;;;;;5071986;28;20261;-72
2021/10/20 11:49:33;;;;;;;;;;;17.00;99.90;;;;;;5072283;28;19986;-72
2021/10/20 11:52:00;;;;;;;;;;;16.90;99.90;;;;;;5072453;28;20313;-73
2021/10/20 11:54:28;;;;;;;;;;;16.90;99.90;;;;;;5072322;28;19916;-72
2021/10/20 11:56:56;;;;;;;;;;;16.90;99.90;;;;;;5072158;28;19956;-71
2021/10/20 11:59:23;;;;;;;;;;;16.90;99.90;;;;;;5071132;28;19995;-71
2021/10/20 12:01:50;;;;;;;;;;;16.90;99.90;;;;;;5071777;28;20387;-71
2021/10/20 12:04:18;;;;;;;;;;;16.90;99.90;;;;;;5072584;28;20317;-73
2021/10/20 12:06:49;;;;;;;;;;;16.90;99.90;;;;;;5105157;28;19916;-72
2021/10/20 12:09:16;;;;;;;;;;;16.90;99.90;;;;;;5072227;28;19916;-72
2021/10/20 12:11:43;;;;;;;;;;;16.90;99.90;;;;;;5108190;28;20324;-72
2021/10/20 12:14:12;;;;;;;;;;;16.90;99.90;;;;;;5075823;28;19923;-72
2021/10/20 12:16:40;;;;;;;;;;;16.90;99.90;;;;;;5071973;28;20027;-71
2021/10/20 12:19:10;;;;;;;;;;;16.90;99.90;;;;;;5072064;28;20015;-72
2021/10/20 12:21:38;;;;;;;;;;;16.90;99.90;;;;;;5071881;28;20465;-72
2021/10/20 12:24:05;;;;;;;;;;;16.90;99.90;;;;;;5070414;28;19965;-72
2021/10/20 12:26:32;;;;;;;;;;;16.90;99.90;;;;;;5079349;28;19908;-73
2021/10/20 12:29:03;;;;;;;;;;;16.80;99.90;;;;;;5074219;28;20362;-71
2021/10/20 12:31:30;;;;;;;;;;;16.80;99.90;;;;;;5072154;28;19954;-72
2021/10/20 12:33:57;;;;;;;;;;;16.80;99.90;;;;;;5072187;28;19909;-73
2021/10/20 12:36:29;;;;;;;;;;;16.80;99.90;;;;;;5072364;28;19912;-71
2021/10/20 12:38:56;;;;;;;;;;;16.80;99.90;;;;;;5072341;28;19908;-72
2021/10/20 12:41:24;;;;;;;;;;;16.80;99.90;;;;;;5074556;28;19912;-72
2021/10/20 12:43:53;;;;;;;;;;;16.70;99.90;;;;;;5075929;28;19958;-71
2021/10/20 12:46:20;;;;;;;;;;;16.80;99.90;;;;;;5075960;28;19971;-71
2021/10/20 12:48:48;;;;;;;;;;;16.80;99.90;;;;;;5075836;28;20375;-71
2021/10/20 12:51:17;;;;;;;;;;;16.80;99.90;;;;;;5076034;28;19916;-72
2021/10/20 12:53:45;;;;;;;;;;;16.80;99.90;;;;;;5075636;28;19915;-71
2021/10/20 12:56:12;;;;;;;;;;;16.80;99.90;;;;;;5075869;28;19920;-72
2021/10/20 12:58:39;;;;;;;;;;;16.80;99.90;;;;;;5075750;28;19909;-71
2021/10/20 13:01:07;;;;;;;;;;;16.80;99.90;;;;;;5075550;28;19949;-71
2021/10/20 13:03:34;;;;;;;;;;;16.70;99.90;;;;;;5075433;28;19912;-72
2021/10/20 13:06:01;;;;;;;;;;;16.70;99.90;;;;;;5076072;28;19992;-71
2021/10/20 13:08:27;;;;;;;;;;;16.70;99.90;;;;;;5075429;28;20390;-71
2021/10/20 13:10:54;;;;;;;;;;;16.70;99.90;;;;;;5075518;28;19974;-71
2021/10/20 13:13:22;;;;;;;;;;;16.70;99.90;;;;;;5075471;28;19995;-71
2021/10/20 13:15:49;;;;;;;;;;;16.70;99.90;;;;;;5075114;28;19908;-72
2021/10/20 13:18:15;;;;;;;;;;;16.70;99.90;;;;;;5075288;28;19915;-71
2021/10/20 13:20:42;;;;;;;;;;;16.60;99.90;;;;;;5075350;28;19970;-71
2021/10/20 13:23:09;;;;;;;;;;;16.60;99.90;;;;;;5075153;28;19960;-72
2021/10/20 13:25:37;;;;;;;;;;;16.60;99.90;;;;;;5075001;28;20363;-71
2021/10/20 13:28:05;;;;;;;;;;;16.60;99.90;;;;;;5075899;28;19915;-71
2021/10/20 13:30:33;;;;;;;;;;;16.60;99.90;;;;;;5075285;28;19920;-72
2021/10/20 13:33:03;;;;;;;;;;;16.60;99.90;;;;;;5075042;28;19912;-71
2021/10/20 13:35:30;;;;;;;;;;;16.60;99.90;;;;;;5074874;28;19908;-71
2021/10/20 13:37:58;;;;;;;;;;;16.60;99.90;;;;;;5074892;28;19908;-72
2021/10/20 13:40:25;;;;;;;;;;;16.60;99.90;;;;;;5074971;28;19912;-71
2021/10/20 13:42:51;;;;;;;;;;;16.70;99.90;;;;;;5074856;28;19957;-71
2021/10/20 13:45:19;;;;;;;;;;;16.70;99.90;;;;;;5074978;28;19908;-71
2021/10/20 13:47:45;;;;;;;;;;;16.70;99.90;;;;;;5090657;28;19908;-71
2021/10/20 13:50:12;;;;;;;;;;;16.70;99.90;;;;;;5075661;28;19991;-71
2021/10/20 13:52:39;;;;;;;;;;;16.70;99.90;;;;;;5074126;28;19975;-71
2021/10/20 13:55:05;;;;;;;;;;;16.70;99.90;;;;;;5074513;28;19962;-72
2021/10/20 13:57:32;;;;;;;;;;;16.70;99.90;;;;;;5074541;28;19999;-73
2021/10/20 14:00:01;;;;;;;;;;;16.80;99.90;;;;;;5074389;28;20279;-73
2021/10/20 14:02:27;;;;;;;;;;;16.70;99.90;;;;;;5074528;28;19916;-72
2021/10/20 14:04:55;;;;;;;;;;;16.70;99.90;;;;;;5074617;28;20359;-73
2021/10/20 14:07:23;;;;;;;;;;;16.70;99.90;;;;;;5074429;28;20274;-73
2021/10/20 14:09:49;;;;;;;;;;;16.60;99.90;;;;;;5074137;28;20215;-71
2021/10/20 14:12:16;;;;;;;;;;;16.60;99.90;;;;;;5074456;28;19908;-71
2021/10/20 14:14:43;;;;;;;;;;;16.50;99.90;;;;;;5074583;28;19908;-72
2021/10/20 14:17:11;;;;;;;;;;;16.50;99.90;;;;;;5074511;28;19908;-72
2021/10/20 14:19:37;;;;;;;;;;;16.50;99.90;;;;;;5074153;28;20019;-72